Almyros — 9HA2510 — position and weather

sailwx.info

Track history (hours):
 
Tides and Currents Weather Stations Pressure Air Temp Water Temp Dewpoint Dewpoint Depression Visibility Wind Speed Wind Dir Waves Ship Positions

Almyros

Last reported at 2015-Jul-27 01:32 UTC. Time now 2015-Sep-03 19:19 UTC.
Position N 03°20' E 100°32'.
Warning: this ship's position is 38 days out of date.

Length 189 m; draft 10.8 m.

Type: Cargo ship. MMSI: 248779000.

Date/timePositionNaut miles runAvg speedWind from/ knotsBaromVisibWave heightAir tempDewpointWater temp
2015-Jul-27 01:32N 03°20' E 100°32'2613.4
2015-Jul-26 23:33N 03°00' E 100°49'2713.4
2015-Jul-26 21:33N 02°44' E 101°11'1313.0
2015-Jul-26 20:33N 02°38' E 101°22'1312.8
2015-Jul-26 19:33N 02°32' E 101°33'1412.6
2015-Jul-26 18:29N 02°24' E 101°44'14413.2
2015-Jul-26 07:33N 01°11' E 103°48'1111.4
2015-Jul-26 06:33N 01°15' E 103°58'3 1.2
2015-Jul-26 04:16N 01°17' E 104°00'0 0.1
2015-Jul-26 03:13N 01°17' E 104°00'0 0.1
2015-Jul-26 02:31N 01°17' E 104°00'0 0.1
2015-Jul-26 01:28N 01°17' E 104°00'0 0.1
2015-Jul-26 00:31N 01°17' E 104°00'0 0.1
2015-Jul-25 23:28N 01°17' E 104°00'0 0.0
2015-Jul-25 22:31N 01°17' E 104°00'0 0.0
2015-Jul-25 21:31N 01°17' E 104°00'0 0.0
2015-Jul-25 20:31N 01°17' E 104°00'1 1.4
2015-Jul-25 19:33N 01°17' E 103°59'6 5.6
2015-Jul-25 18:33N 01°16' E 104°05'  
2015-Jul-17 19:33N 31°06' E 122°25'1313.2
2015-Jul-17 18:34N 31°11' E 122°11'1211.9
2015-Jul-17 17:33N 31°15' E 121°58'10 9.7
2015-Jul-17 16:33N 31°18' E 121°47'8 7.7
2015-Jul-17 15:34N 31°21' E 121°39'7 7.0
2015-Jul-17 14:32N 31°25' E 121°31'7 6.7
2015-Jul-17 13:32N 31°30' E 121°26'9 9.6
2015-Jul-17 12:33N 31°36' E 121°17'1010.4
2015-Jul-17 11:33N 31°42' E 121°08'8 8.4
2015-Jul-17 10:32N 31°47' E 120°59'9 9.1
2015-Jul-17 09:33N 31°54' E 120°53'0 0.3
2015-Jul-17 08:17N 31°54' E 120°54'0 0.1
2015-Jul-17 07:32N 31°54' E 120°53'0 0.0
2015-Jul-17 06:23N 31°54' E 120°53'0 0.0
2015-Jul-17 05:25N 31°54' E 120°53'4 4.3
2015-Jul-17 04:33N 31°50' E 120°54'3 1.3
2015-Jul-17 02:15N 31°49' E 120°57'0 0.0
2015-Jul-17 01:32N 31°49' E 120°57'  
Track history (hours):
 
Tides and Currents Weather Stations Pressure Air Temp Water Temp Dewpoint Dewpoint Depression Visibility Wind Speed Wind Dir Waves Ship Positions

Almyros

Last reported at 2015-Jul-27 01:32 UTC. Time now 2015-Sep-03 19:19 UTC.
Position N 03°20' E 100°32'.
Warning: this ship's position is 38 days out of date.

Length 189 m; draft 10.8 m.

Type: Cargo ship. MMSI: 248779000.

Date/timePositionNaut miles runAvg speedWind from/ knotsBaromVisibWave heightAir tempDewpointWater temp
2015-Jul-27 01:32N 03°20' E 100°32'2613.4
2015-Jul-26 23:33N 03°00' E 100°49'2713.4
2015-Jul-26 21:33N 02°44' E 101°11'1313.0
2015-Jul-26 20:33N 02°38' E 101°22'1312.8
2015-Jul-26 19:33N 02°32' E 101°33'1412.6
2015-Jul-26 18:29N 02°24' E 101°44'14413.2
2015-Jul-26 07:33N 01°11' E 103°48'1111.4
2015-Jul-26 06:33N 01°15' E 103°58'3 1.2
2015-Jul-26 04:16N 01°17' E 104°00'0 0.1
2015-Jul-26 03:13N 01°17' E 104°00'0 0.1
2015-Jul-26 02:31N 01°17' E 104°00'0 0.1
2015-Jul-26 01:28N 01°17' E 104°00'0 0.1
2015-Jul-26 00:31N 01°17' E 104°00'0 0.1
2015-Jul-25 23:28N 01°17' E 104°00'0 0.0
2015-Jul-25 22:31N 01°17' E 104°00'0 0.0
2015-Jul-25 21:31N 01°17' E 104°00'0 0.0
2015-Jul-25 20:31N 01°17' E 104°00'1 1.4
2015-Jul-25 19:33N 01°17' E 103°59'6 5.6
2015-Jul-25 18:33N 01°16' E 104°05'  
2015-Jul-17 19:33N 31°06' E 122°25'1313.2
2015-Jul-17 18:34N 31°11' E 122°11'1211.9
2015-Jul-17 17:33N 31°15' E 121°58'10 9.7
2015-Jul-17 16:33N 31°18' E 121°47'8 7.7
2015-Jul-17 15:34N 31°21' E 121°39'7 7.0
2015-Jul-17 14:32N 31°25' E 121°31'7 6.7
2015-Jul-17 13:32N 31°30' E 121°26'9 9.6
2015-Jul-17 12:33N 31°36' E 121°17'1010.4
2015-Jul-17 11:33N 31°42' E 121°08'8 8.4
2015-Jul-17 10:32N 31°47' E 120°59'9 9.1
2015-Jul-17 09:33N 31°54' E 120°53'0 0.3
2015-Jul-17 08:17N 31°54' E 120°54'0 0.1
2015-Jul-17 07:32N 31°54' E 120°53'0 0.0
2015-Jul-17 06:23N 31°54' E 120°53'0 0.0
2015-Jul-17 05:25N 31°54' E 120°53'4 4.3
2015-Jul-17 04:33N 31°50' E 120°54'3 1.3
2015-Jul-17 02:15N 31°49' E 120°57'0 0.0
2015-Jul-17 01:32N 31°49' E 120°57'  

Dump ship's entire track history